Time;durP1;ratioP1;P1;durP2;ratioP2;P2;SDS_P1;SDS_P2;PMS_P1;PMS_P2;Temp;Humidity;BMP_temperature;BMP_pressure;BME280_temperature;BME280_humidity;BME280_pressure;Samples;Min_cycle;Max_cycle;Signal;HPM_P1;HPM_P2
2022/04/15 00:00:27;;;;;;;20.23;11.52;;;;;;;;;;4988604;28;20041;-75
2022/04/15 00:02:53;;;;;;;17.63;10.85;;;;;;;;;;5007776;28;20152;-78
2022/04/15 00:05:36;;;;;;;17.55;11.07;;;;;;;;;;4989593;28;20046;-75
2022/04/15 00:08:10;;;;;;;20.63;12.07;;;;;;;;;;4959269;28;20413;-79
2022/04/15 00:10:37;;;;;;;;;;;;;;;;;;4988406;28;20674;-78
2022/04/15 00:13:08;;;;;;;15.48;9.77;;;;;;;;;;4989789;28;20292;-78
2022/04/15 00:15:35;;;;;;;16.95;10.20;;;;;;;;;;4974663;28;20123;-75
2022/04/15 00:18:01;;;;;;;22.63;10.38;;;;;;;;;;4974217;28;20140;-78
2022/04/15 00:20:27;;;;;;;16.38;9.38;;;;;;;;;;4989402;28;20042;-75
2022/04/15 00:22:53;;;;;;;16.23;9.82;;;;;;;;;;4990835;28;20450;-75
2022/04/15 00:25:19;;;;;;;19.55;10.25;;;;;;;;;;4990251;28;20129;-75
2022/04/15 00:27:46;;;;;;;19.67;10.52;;;;;;;;;;4991364;28;20089;-74
2022/04/15 00:30:12;;;;;;;19.33;10.05;;;;;;;;;;4994904;28;20045;-76
2022/04/15 00:32:39;;;;;;;15.02;9.07;;;;;;;;;;4974832;28;20042;-75
2022/04/15 00:35:06;;;;;;;15.60;9.52;;;;;;;;;;4974047;28;20121;-75
2022/04/15 00:37:32;;;;;;;18.52;9.93;;;;;;;;;;4989342;28;20046;-74
2022/04/15 00:40:01;;;;;;;14.45;10.27;;;;;;;;;;5004490;28;20125;-78
2022/04/15 00:42:27;;;;;;;20.52;9.77;;;;;;;;;;4988136;28;20046;-75
2022/04/15 00:44:56;;;;;;;15.13;9.65;;;;;;;;;;4963964;28;20087;-75
2022/04/15 00:47:36;;;;;;;18.60;9.38;;;;;;;;;;4989724;28;20060;-75
2022/04/15 00:50:03;;;;;;;21.80;9.48;;;;;;;;;;4989409;28;20073;-75
2022/04/15 00:52:35;;;;;;;15.27;10.05;;;;;;;;;;4974222;28;20056;-76
2022/04/15 00:55:03;;;;;;;17.60;10.05;;;;;;;;;;4990220;28;20042;-74
2022/04/15 00:57:29;;;;;;;14.05;9.85;;;;;;;;;;4972974;28;20405;-76
2022/04/15 00:59:58;;;;;;;16.88;9.52;;;;;;;;;;4988950;28;20107;-75
2022/04/15 01:02:28;;;;;;;19.17;9.88;;;;;;;;;;4989867;28;20038;-77
2022/04/15 01:04:56;;;;;;;14.82;9.85;;;;;;;;;;4984972;28;20132;-75
2022/04/15 01:07:24;;;;;;;13.23;8.07;;;;;;;;;;5004418;28;20424;-74
2022/04/15 01:09:52;;;;;;;22.90;9.60;;;;;;;;;;4988631;28;20053;-75
2022/04/15 01:12:18;;;;;;;22.20;9.80;;;;;;;;;;4990034;28;20221;-77
2022/04/15 01:14:45;;;;;;;19.30;9.65;;;;;;;;;;4987887;28;20046;-75
2022/04/15 01:17:11;;;;;;;14.90;9.10;;;;;;;;;;4994972;28;20045;-75
2022/04/15 01:19:38;;;;;;;14.65;8.07;;;;;;;;;;4957643;28;20366;-75
2022/04/15 01:22:08;;;;;;;17.98;8.90;;;;;;;;;;4956889;28;20050;-75
2022/04/15 01:24:38;;;;;;;19.45;9.38;;;;;;;;;;5007475;28;20111;-75
2022/04/15 01:27:04;;;;;;;13.77;8.90;;;;;;;;;;5014174;28;20108;-75
2022/04/15 01:29:40;;;;;;;16.67;8.77;;;;;;;;;;4975637;28;20071;-75
2022/04/15 01:32:07;;;;;;;18.40;8.63;;;;;;;;;;5006499;28;20041;-74
2022/04/15 01:34:37;;;;;;;20.42;8.32;;;;;;;;;;4972765;28;20637;-75
2022/04/15 01:37:04;;;;;;;23.40;9.35;;;;;;;;;;4994765;28;20441;-75
2022/04/15 01:39:36;;;;;;;16.35;8.80;;;;;;;;;;4987388;28;20050;-75
2022/04/15 01:42:03;;;;;;;15.18;7.57;;;;;;;;;;5007185;28;20077;-74
2022/04/15 01:44:29;;;;;;;14.02;7.85;;;;;;;;;;4988998;28;20590;-74
2022/04/15 01:46:55;;;;;;;13.57;7.30;;;;;;;;;;5005175;28;20453;-75
2022/04/15 01:49:21;;;;;;;12.07;7.75;;;;;;;;;;4987533;28;20057;-76
2022/04/15 01:51:47;;;;;;;13.68;7.90;;;;;;;;;;4990961;28;20068;-75
2022/04/15 01:54:13;;;;;;;15.02;8.65;;;;;;;;;;4987144;28;20053;-75
2022/04/15 01:56:39;;;;;;;16.77;7.85;;;;;;;;;;4989753;28;20057;-76
2022/04/15 01:59:09;;;;;;;11.15;6.93;;;;;;;;;;4987485;28;20042;-75
2022/04/15 02:01:35;;;;;;;12.88;6.22;;;;;;;;;;4988111;28;20069;-75
2022/04/15 02:04:01;;;;;;;12.77;6.63;;;;;;;;;;5005535;28;20073;-75
2022/04/15 02:06:27;;;;;;;14.80;6.55;;;;;;;;;;4989144;28;20041;-75
2022/04/15 02:08:53;;;;;;;17.25;6.32;;;;;;;;;;4988240;28;20058;-76
2022/04/15 02:11:19;;;;;;;15.98;6.28;;;;;;;;;;5005303;28;20133;-75
2022/04/15 02:13:45;;;;;;;19.08;6.20;;;;;;;;;;4989591;28;20140;-75
2022/04/15 02:16:12;;;;;;;14.15;6.22;;;;;;;;;;4989172;28;20048;-78
2022/04/15 02:18:38;;;;;;;11.65;5.43;;;;;;;;;;4973441;28;20034;-75
2022/04/15 02:21:05;;;;;;;13.95;6.53;;;;;;;;;;4983000;28;20084;-76
2022/04/15 02:23:31;;;;;;;14.00;5.78;;;;;;;;;;4987210;28;20843;-75
2022/04/15 02:25:57;;;;;;;20.50;6.15;;;;;;;;;;4986586;28;20042;-75
2022/04/15 02:28:23;;;;;;;18.15;6.53;;;;;;;;;;4972341;28;20038;-74
2022/04/15 02:30:49;;;;;;;19.27;7.40;;;;;;;;;;4984573;28;20045;-77
2022/04/15 02:33:15;;;;;;;18.90;7.35;;;;;;;;;;4986703;28;20044;-74
2022/04/15 02:35:41;;;;;;;17.67;7.53;;;;;;;;;;4971502;28;20053;-73
2022/04/15 02:38:08;;;;;;;16.55;7.80;;;;;;;;;;4989242;28;20061;-76
2022/04/15 02:40:34;;;;;;;19.65;8.43;;;;;;;;;;5002434;28;20044;-77
2022/04/15 02:43:00;;;;;;;20.40;9.35;;;;;;;;;;4989455;28;20508;-78
2022/04/15 02:45:28;;;;;;;23.70;9.80;;;;;;;;;;4966949;28;20046;-74
2022/04/15 02:47:55;;;;;;;21.20;8.90;;;;;;;;;;5005946;28;20046;-73
2022/04/15 02:50:21;;;;;;;16.48;7.93;;;;;;;;;;4986043;28;21813;-77
2022/04/15 02:52:47;;;;;;;17.77;9.02;;;;;;;;;;4990870;28;20053;-74
2022/04/15 02:55:13;;;;;;;19.67;9.40;;;;;;;;;;5004700;28;20397;-74
2022/04/15 02:57:39;;;;;;;20.50;8.77;;;;;;;;;;4988053;28;20049;-74
2022/04/15 03:00:05;;;;;;;21.17;9.48;;;;;;;;;;5003525;28;20160;-74
2022/04/15 03:02:32;;;;;;;17.90;8.88;;;;;;;;;;4989068;28;20448;-74
2022/04/15 03:04:58;;;;;;;18.83;9.38;;;;;;;;;;4986740;28;20042;-74
2022/04/15 03:07:24;;;;;;;23.35;9.40;;;;;;;;;;5005900;28;20560;-74
2022/04/15 03:09:50;;;;;;;20.73;10.77;;;;;;;;;;4990529;28;20078;-73
2022/04/15 03:12:16;;;;;;;26.60;13.65;;;;;;;;;;4992173;28;20053;-77
2022/04/15 03:14:43;;;;;;;32.95;17.52;;;;;;;;;;4989938;28;20112;-73
2022/04/15 03:17:09;;;;;;;25.65;17.75;;;;;;;;;;4993081;28;20089;-73
2022/04/15 03:19:35;;;;;;;26.08;19.13;;;;;;;;;;4971712;28;20041;-73
2022/04/15 03:22:01;;;;;;;28.92;19.80;;;;;;;;;;5009585;28;20133;-75
2022/04/15 03:24:27;;;;;;;28.55;20.63;;;;;;;;;;4991333;28;20516;-73
2022/04/15 03:26:53;;;;;;;24.85;20.20;;;;;;;;;;4991437;28;20057;-73
2022/04/15 03:29:19;;;;;;;25.63;19.23;;;;;;;;;;4992135;28;20100;-78
2022/04/15 03:31:45;;;;;;;23.60;18.00;;;;;;;;;;4992262;28;20088;-76
2022/04/15 03:34:13;;;;;;;20.80;16.30;;;;;;;;;;5008161;28;20088;-73
2022/04/15 03:36:39;;;;;;;20.35;16.02;;;;;;;;;;4973882;28;20052;-73
2022/04/15 03:39:05;;;;;;;19.48;15.00;;;;;;;;;;4990877;28;20481;-73
2022/04/15 03:41:31;;;;;;;19.08;13.93;;;;;;;;;;4973248;28;20061;-73
2022/04/15 03:43:57;;;;;;;15.57;12.77;;;;;;;;;;4992485;28;20145;-74
2022/04/15 03:46:23;;;;;;;13.75;12.35;;;;;;;;;;4988680;28;20046;-73
2022/04/15 03:48:49;;;;;;;13.20;10.95;;;;;;;;;;4974201;28;20125;-73
2022/04/15 03:51:15;;;;;;;15.43;8.93;;;;;;;;;;4974476;28;20049;-73
2022/04/15 03:53:41;;;;;;;13.10;9.35;;;;;;;;;;5007943;28;20497;-76
2022/04/15 03:56:08;;;;;;;12.30;8.05;;;;;;;;;;4974013;28;20141;-74
2022/04/15 03:58:35;;;;;;;12.70;7.35;;;;;;;;;;4990516;28;20393;-75
2022/04/15 04:01:01;;;;;;;7.13;6.30;;;;;;;;;;5010157;28;20045;-74
2022/04/15 04:03:27;;;;;;;10.85;7.38;;;;;;;;;;4987767;28;20054;-78
2022/04/15 04:05:53;;;;;;;7.57;6.40;;;;;;;;;;4990212;28;20452;-74
2022/04/15 04:08:19;;;;;;;9.35;6.50;;;;;;;;;;4959671;28;20386;-76
2022/04/15 04:10:45;;;;;;;9.35;7.47;;;;;;;;;;4997763;28;20532;-74
2022/04/15 04:13:11;;;;;;;10.10;7.10;;;;;;;;;;4973645;28;20057;-74
2022/04/15 04:15:37;;;;;;;7.28;6.57;;;;;;;;;;4973630;28;20057;-75
2022/04/15 04:18:04;;;;;;;8.05;7.22;;;;;;;;;;5007949;28;20121;-73
2022/04/15 04:20:30;;;;;;;8.27;6.95;;;;;;;;;;4989595;28;20047;-73
2022/04/15 04:22:57;;;;;;;9.35;6.45;;;;;;;;;;4991649;28;20085;-74
2022/04/15 04:25:23;;;;;;;10.48;6.68;;;;;;;;;;4972936;28;20164;-78
2022/04/15 04:27:49;;;;;;;9.25;6.57;;;;;;;;;;4988895;28;20041;-73
2022/04/15 04:30:15;;;;;;;10.35;6.68;;;;;;;;;;4991463;28;20045;-73
2022/04/15 04:32:51;;;;;;;8.68;6.15;;;;;;;;;;4986613;28;20048;-74
2022/04/15 04:35:21;;;;;;;7.47;5.95;;;;;;;;;;4987713;28;20053;-74
2022/04/15 04:37:48;;;;;;;8.60;6.03;;;;;;;;;;4984861;28;20049;-74
2022/04/15 04:40:14;;;;;;;6.32;5.30;;;;;;;;;;5007084;28;20042;-73
2022/04/15 04:42:40;;;;;;;6.63;3.72;;;;;;;;;;5005690;28;20054;-74
2022/04/15 04:45:07;;;;;;;6.10;4.05;;;;;;;;;;4992262;28;20125;-74
2022/04/15 04:47:33;;;;;;;5.53;4.38;;;;;;;;;;5010903;28;20081;-77
2022/04/15 04:50:01;;;;;;;5.28;4.78;;;;;;;;;;4991034;28;20042;-73
2022/04/15 04:52:27;;;;;;;5.93;4.13;;;;;;;;;;4973294;28;20063;-74
2022/04/15 04:54:53;;;;;;;8.73;4.68;;;;;;;;;;4990690;28;20046;-73
2022/04/15 04:57:19;;;;;;;6.22;3.70;;;;;;;;;;4985995;28;20196;-76
2022/04/15 04:59:45;;;;;;;7.03;4.32;;;;;;;;;;4987509;28;20601;-74
2022/04/15 05:02:12;;;;;;;4.80;3.15;;;;;;;;;;4976092;28;20046;-75
2022/04/15 05:04:40;;;;;;;4.82;2.72;;;;;;;;;;4988988;28;20046;-74
2022/04/15 05:07:06;;;;;;;3.58;2.83;;;;;;;;;;4973835;28;20052;-73
2022/04/15 05:09:32;;;;;;;4.25;2.88;;;;;;;;;;4993467;28;20054;-73
2022/04/15 05:11:58;;;;;;;4.90;2.65;;;;;;;;;;5004672;28;20050;-77
2022/04/15 05:14:24;;;;;;;6.38;3.05;;;;;;;;;;4968943;28;20056;-77
2022/04/15 05:16:50;;;;;;;3.55;3.05;;;;;;;;;;4988460;28;20044;-74
2022/04/15 05:19:16;;;;;;;6.10;3.78;;;;;;;;;;4981540;28;20053;-75
2022/04/15 05:21:42;;;;;;;6.95;3.72;;;;;;;;;;4988490;28;20050;-74
2022/04/15 05:24:09;;;;;;;4.85;3.50;;;;;;;;;;4987104;28;20069;-74
2022/04/15 05:26:38;;;;;;;4.47;3.20;;;;;;;;;;4989016;28;20042;-75
2022/04/15 05:29:05;;;;;;;5.80;2.85;;;;;;;;;;4990046;28;20511;-73
2022/04/15 05:31:31;;;;;;;3.13;2.83;;;;;;;;;;4987701;28;20046;-74
2022/04/15 05:33:57;;;;;;;5.88;3.33;;;;;;;;;;4974013;28;20100;-74
2022/04/15 05:36:23;;;;;;;6.55;3.80;;;;;;;;;;4975614;28;20042;-76
2022/04/15 05:38:49;;;;;;;6.88;4.00;;;;;;;;;;4994147;28;20050;-74
2022/04/15 05:41:15;;;;;;;5.63;3.65;;;;;;;;;;5009256;28;20049;-74
2022/04/15 05:43:42;;;;;;;3.83;2.90;;;;;;;;;;4973220;28;20390;-75
2022/04/15 05:46:09;;;;;;;9.98;3.65;;;;;;;;;;4987640;28;20046;-75
2022/04/15 05:48:35;;;;;;;6.63;3.58;;;;;;;;;;4986320;28;20076;-74
2022/04/15 05:51:01;;;;;;;4.55;4.10;;;;;;;;;;4992338;28;20085;-75
2022/04/15 05:53:27;;;;;;;4.82;4.32;;;;;;;;;;4971783;28;20045;-78
2022/04/15 05:55:53;;;;;;;7.75;4.60;;;;;;;;;;4977994;28;20052;-75
2022/04/15 05:58:19;;;;;;;6.68;4.45;;;;;;;;;;4977557;28;20053;-75
2022/04/15 06:00:45;;;;;;;7.70;4.80;;;;;;;;;;4975507;28;20481;-75
2022/04/15 06:03:11;;;;;;;7.00;4.95;;;;;;;;;;5009835;28;20481;-75
2022/04/15 06:05:37;;;;;;;6.28;5.07;;;;;;;;;;4974887;28;20050;-74
2022/04/15 06:08:03;;;;;;;6.15;4.85;;;;;;;;;;4974537;28;20513;-74
2022/04/15 06:10:30;;;;;;;8.02;5.10;;;;;;;;;;4974385;28;20133;-78
2022/04/15 06:13:09;;;;;;;12.70;5.47;;;;;;;;;;4992104;28;20053;-79
2022/04/15 06:15:41;;;;;;;8.13;5.50;;;;;;;;;;4990967;28;20409;-74
2022/04/15 06:18:07;;;;;;;6.82;5.32;;;;;;;;;;4989705;28;20079;-74
2022/04/15 06:20:34;;;;;;;8.88;6.00;;;;;;;;;;4980527;28;20050;-74
2022/04/15 06:23:00;;;;;;;9.32;5.97;;;;;;;;;;4976230;28;20172;-74
2022/04/15 06:25:26;;;;;;;10.10;6.55;;;;;;;;;;4975102;28;20106;-74
2022/04/15 06:27:54;;;;;;;9.52;6.43;;;;;;;;;;5007060;28;20404;-74
2022/04/15 06:30:21;;;;;;;10.50;8.07;;;;;;;;;;4975007;28;20046;-74
2022/04/15 06:32:48;;;;;;;10.55;8.02;;;;;;;;;;4985204;28;20393;-73
2022/04/15 06:35:14;;;;;;;10.75;7.97;;;;;;;;;;5008162;28;20042;-75
2022/04/15 06:37:40;;;;;;;12.98;8.05;;;;;;;;;;4987360;28;20041;-77
2022/04/15 06:40:06;;;;;;;12.32;8.80;;;;;;;;;;4983202;28;20045;-74
2022/04/15 06:42:34;;;;;;;12.95;9.35;;;;;;;;;;4982723;28;20116;-73
2022/04/15 06:45:00;;;;;;;12.07;8.05;;;;;;;;;;4972850;28;20088;-74
2022/04/15 06:47:26;;;;;;;12.43;9.18;;;;;;;;;;5001322;28;20053;-74
2022/04/15 06:49:52;;;;;;;11.63;8.70;;;;;;;;;;4989751;28;20421;-74
2022/04/15 06:52:18;;;;;;;15.02;9.00;;;;;;;;;;5004766;28;20057;-74
2022/04/15 06:54:45;;;;;;;14.35;10.00;;;;;;;;;;4987965;28;20176;-73
2022/04/15 06:57:11;;;;;;;13.23;9.57;;;;;;;;;;4990729;28;20111;-72
2022/04/15 06:59:37;;;;;;;12.73;10.35;;;;;;;;;;4986628;28;20053;-73
2022/04/15 07:02:04;;;;;;;17.60;10.43;;;;;;;;;;4986908;28;20045;-76
2022/04/15 07:04:32;;;;;;;15.73;10.85;;;;;;;;;;5002579;28;20054;-75
2022/04/15 07:06:58;;;;;;;15.68;11.10;;;;;;;;;;4984039;28;20046;-75
2022/04/15 07:09:24;;;;;;;14.52;10.30;;;;;;;;;;4970601;28;20089;-75
2022/04/15 07:11:51;;;;;;;16.27;10.48;;;;;;;;;;5006767;28;20058;-75
2022/04/15 07:14:17;;;;;;;14.02;10.63;;;;;;;;;;4969488;28;20039;-76
2022/04/15 07:16:43;;;;;;;13.55;10.98;;;;;;;;;;4983421;28;20046;-75
2022/04/15 07:19:09;;;;;;;17.33;12.00;;;;;;;;;;4982332;28;20305;-73
2022/04/15 07:21:36;;;;;;;15.63;11.05;;;;;;;;;;4999131;28;20042;-77
2022/04/15 07:24:03;;;;;;;20.45;11.55;;;;;;;;;;4984581;28;20072;-74
2022/04/15 07:26:29;;;;;;;19.30;10.80;;;;;;;;;;4983246;28;20050;-76
2022/04/15 07:28:55;;;;;;;21.38;11.52;;;;;;;;;;4966772;28;20041;-75
2022/04/15 07:31:21;;;;;;;20.67;10.93;;;;;;;;;;4967223;28;20138;-76
2022/04/15 07:33:47;;;;;;;17.60;10.88;;;;;;;;;;4982780;28;20053;-77
2022/04/15 07:39:16;;;;;;;21.05;10.70;;;;;;;;;;4925738;28;20062;-77
2022/04/15 07:41:42;;;;;;;17.55;10.25;;;;;;;;;;4987656;28;20068;-74
2022/04/15 07:44:09;;;;;;;15.25;10.07;;;;;;;;;;4973624;28;20444;-75
2022/04/15 07:46:35;;;;;;;16.55;9.48;;;;;;;;;;4988818;28;20124;-75
2022/04/15 07:49:02;;;;;;;15.10;8.15;;;;;;;;;;4968620;28;20053;-75
2022/04/15 07:51:28;;;;;;;16.75;7.82;;;;;;;;;;5000286;28;20051;-73
2022/04/15 07:53:54;;;;;;;14.15;7.80;;;;;;;;;;4968189;28;20049;-79
2022/04/15 07:56:20;;;;;;;13.27;7.50;;;;;;;;;;4982146;28;20060;-76
2022/04/15 07:58:46;;;;;;;16.45;7.80;;;;;;;;;;4965097;28;20042;-76
2022/04/15 08:01:12;;;;;;;9.48;7.18;;;;;;;;;;4969490;28;20053;-76
2022/04/15 08:03:39;;;;;;;14.00;7.15;;;;;;;;;;4987322;28;20053;-75
2022/04/15 08:06:06;;;;;;;12.23;6.80;;;;;;;;;;4989497;28;20058;-77
2022/04/15 08:08:32;;;;;;;12.70;6.90;;;;;;;;;;4987052;28;20481;-76
2022/04/15 08:10:58;;;;;;;13.63;7.15;;;;;;;;;;4969195;28;20085;-75
2022/04/15 08:13:24;;;;;;;12.98;7.07;;;;;;;;;;4985514;28;20145;-75
2022/04/15 08:15:53;;;;;;;11.43;6.72;;;;;;;;;;4983175;28;20129;-77
2022/04/15 08:18:23;;;;;;;9.48;5.93;;;;;;;;;;4988253;28;20052;-75
2022/04/15 08:20:55;;;;;;;10.63;5.40;;;;;;;;;;4985729;28;20050;-74
2022/04/15 08:23:21;;;;;;;9.15;5.75;;;;;;;;;;4970459;28;20048;-75
2022/04/15 08:25:47;;;;;;;9.20;6.05;;;;;;;;;;4985302;28;20464;-74
2022/04/15 08:28:13;;;;;;;12.18;5.50;;;;;;;;;;4980053;28;20053;-75
2022/04/15 08:30:39;;;;;;;10.45;5.55;;;;;;;;;;4993964;28;20081;-75
2022/04/15 08:33:06;;;;;;;10.10;5.60;;;;;;;;;;4976292;28;20132;-75
2022/04/15 08:35:32;;;;;;;;;;;;;;;;;;4971537;28;20168;-76
2022/04/15 08:37:58;;;;;;;;;;;;;;;;;;4955698;28;19929;-77
2022/04/15 08:40:27;;;;;;;;;;;;;;;;;;5000754;28;19929;-77
2022/04/15 08:42:53;;;;;;;9.70;6.25;;;;;;;;;;4983982;28;20485;-76
2022/04/15 08:45:19;;;;;;;;;;;;;;;;;;4995909;28;20508;-75
2022/04/15 08:47:45;;;;;;;;;;;;;;;;;;4985590;28;19922;-76
2022/04/15 08:50:11;;;;;;;;;;;;;;;;;;4978640;28;19929;-77
2022/04/15 08:52:36;;;;;;;;;;;;;;;;;;4982556;28;20360;-79
2022/04/15 08:55:02;;;;;;;;;;;;;;;;;;4984115;28;19960;-74
2022/04/15 08:57:28;;;;;;;8.77;4.38;;;;;;;;;;4987273;28;19921;-75
2022/04/15 08:59:54;;;;;;;6.63;4.15;;;;;;;;;;5005184;28;20052;-74
2022/04/15 09:02:35;;;;;;;7.68;4.55;;;;;;;;;;4974313;28;20104;-74
2022/04/15 09:05:01;;;;;;;14.77;5.13;;;;;;;;;;4984213;28;20351;-79
2022/04/15 09:07:28;;;;;;;11.02;5.47;;;;;;;;;;4985066;28;20888;-77
2022/04/15 09:09:56;;;;;;;7.93;5.07;;;;;;;;;;4968761;28;20065;-76
2022/04/15 09:12:28;;;;;;;8.18;4.93;;;;;;;;;;4969480;28;20123;-76
2022/04/15 09:15:15;;;;;;;7.07;4.75;;;;;;;;;;4988404;28;20042;-75
2022/04/15 09:17:42;;;;;;;8.27;4.85;;;;;;;;;;4987956;28;20501;-76
2022/04/15 09:20:11;;;;;;;10.20;4.82;;;;;;;;;;4969576;28;20050;-75
2022/04/15 09:22:37;;;;;;;8.18;4.55;;;;;;;;;;4990059;28;20111;-78
2022/04/15 09:25:03;;;;;;;9.07;4.05;;;;;;;;;;4976631;28;20046;-79
2022/04/15 09:27:29;;;;;;;11.95;4.25;;;;;;;;;;4970695;28;20157;-76
2022/04/15 09:29:56;;;;;;;7.53;4.10;;;;;;;;;;4987121;28;20537;-77
2022/04/15 09:32:23;;;;;;;7.10;4.30;;;;;;;;;;4972883;28;20124;-77
2022/04/15 09:34:56;;;;;;;7.47;4.20;;;;;;;;;;4957800;28;20120;-76
2022/04/15 09:37:23;;;;;;;7.70;3.87;;;;;;;;;;5010593;28;20046;-77
2022/04/15 09:40:09;;;;;;;5.35;3.95;;;;;;;;;;4992702;28;20642;-77
2022/04/15 09:42:36;;;;;;;6.55;4.80;;;;;;;;;;4994222;28;20057;-78
2022/04/15 09:45:15;;;;;;;7.68;4.57;;;;;;;;;;4972300;28;20119;-79
2022/04/15 09:47:42;;;;;;;9.10;4.78;;;;;;;;;;4985251;28;20121;-77
2022/04/15 09:50:20;;;;;;;9.10;4.85;;;;;;;;;;4966900;28;20401;-78
2022/04/15 09:52:46;;;;;;;6.50;4.80;;;;;;;;;;5013602;28;20069;-78
2022/04/15 09:55:13;;;;;;;7.55;4.95;;;;;;;;;;4970984;28;20053;-77
2022/04/15 09:57:39;;;;;;;9.20;5.13;;;;;;;;;;4972505;28;21168;-77
2022/04/15 10:00:10;;;;;;;7.90;5.32;;;;;;;;;;4956629;28;20120;-77
2022/04/15 10:02:37;;;;;;;7.57;4.45;;;;;;;;;;4973966;28;20140;-77
2022/04/15 10:05:04;;;;;;;6.70;4.82;;;;;;;;;;4975035;28;20103;-80
2022/04/15 10:07:31;;;;;;;8.40;5.03;;;;;;;;;;4985709;28;20497;-81
2022/04/15 10:09:58;;;;;;;8.73;4.50;;;;;;;;;;4998616;28;20397;-77
2022/04/15 10:12:24;;;;;;;9.05;5.28;;;;;;;;;;4993408;28;20137;-81
2022/04/15 10:14:51;;;;;;;9.93;5.80;;;;;;;;;;4985725;28;20133;-76
2022/04/15 10:17:20;;;;;;;9.70;5.70;;;;;;;;;;5010746;28;20475;-79
2022/04/15 10:19:46;;;;;;;10.43;5.72;;;;;;;;;;4994697;28;20041;-83
2022/04/15 10:22:14;;;;;;;11.25;5.03;;;;;;;;;;4992173;28;20084;-77
2022/04/15 10:24:40;;;;;;;7.90;5.30;;;;;;;;;;4999033;28;20092;-75
2022/04/15 10:27:07;;;;;;;8.43;5.07;;;;;;;;;;5023255;28;20263;-76
2022/04/15 10:29:33;;;;;;;8.05;4.60;;;;;;;;;;4995912;28;20555;-80
2022/04/15 10:32:11;;;;;;;12.80;5.50;;;;;;;;;;4971259;28;20504;-77
2022/04/15 10:34:45;;;;;;;8.70;5.32;;;;;;;;;;4982005;28;20061;-77
2022/04/15 10:37:11;;;;;;;8.75;5.38;;;;;;;;;;4978508;28;20090;-79
2022/04/15 10:39:48;;;;;;;11.80;5.50;;;;;;;;;;4978363;28;20180;-78
2022/04/15 10:42:18;;;;;;;9.30;5.45;;;;;;;;;;4972880;28;20054;-77
2022/04/15 10:44:44;;;;;;;7.95;5.32;;;;;;;;;;4992368;28;20127;-74
2022/04/15 10:47:10;;;;;;;9.07;5.57;;;;;;;;;;4998669;28;20057;-76
2022/04/15 10:49:38;;;;;;;6.63;4.22;;;;;;;;;;4987026;28;20050;-84
2022/04/15 10:52:16;;;;;;;7.22;4.47;;;;;;;;;;4985114;28;20050;-84
2022/04/15 10:54:45;;;;;;;8.50;4.60;;;;;;;;;;4993939;28;20046;-83
2022/04/15 10:57:18;;;;;;;7.80;5.20;;;;;;;;;;4977277;28;20053;-80
2022/04/15 11:02:43;;;;;;;8.60;5.63;;;;;;;;;;4998532;28;20413;-81
2022/04/15 11:05:11;;;;;;;11.95;5.53;;;;;;;;;;5001852;28;20370;-82
2022/04/15 11:07:47;;;;;;;9.80;5.10;;;;;;;;;;5005972;28;20054;-80
2022/04/15 11:10:42;;;;;;;10.73;5.55;;;;;;;;;;4980351;28;20374;-80
2022/04/15 11:13:29;;;;;;;10.82;5.80;;;;;;;;;;4977709;28;20053;-79
2022/04/15 11:16:02;;;;;;;9.25;5.22;;;;;;;;;;4979152;28;20164;-81
2022/04/15 11:18:43;;;;;;;9.57;5.20;;;;;;;;;;4989582;28;20168;-82
2022/04/15 11:21:27;;;;;;;9.30;5.57;;;;;;;;;;5008364;28;20046;-78
2022/04/15 11:24:04;;;;;;;11.30;5.50;;;;;;;;;;4992909;28;20050;-81
2022/04/15 11:26:30;;;;;;;8.65;5.85;;;;;;;;;;5000213;28;20152;-82
2022/04/15 11:28:57;;;;;;;11.23;6.15;;;;;;;;;;4996717;28;20042;-77
2022/04/15 11:31:32;;;;;;;13.20;6.13;;;;;;;;;;5014257;28;20039;-80
2022/04/15 11:34:13;;;;;;;9.35;5.80;;;;;;;;;;4979492;28;20511;-80
2022/04/15 11:36:40;;;;;;;10.63;6.07;;;;;;;;;;4992461;28;20046;-80
2022/04/15 11:39:07;;;;;;;10.68;5.60;;;;;;;;;;4993102;28;20044;-77
2022/04/15 11:41:34;;;;;;;7.07;5.40;;;;;;;;;;4978706;28;20133;-79
2022/04/15 11:44:01;;;;;;;7.05;5.57;;;;;;;;;;4981081;28;20389;-83
2022/04/15 11:46:38;;;;;;;9.43;5.43;;;;;;;;;;4989514;28;20038;-78
2022/04/15 11:49:04;;;;;;;9.38;5.50;;;;;;;;;;4985138;28;20054;-81
2022/04/15 11:51:31;;;;;;;9.20;5.65;;;;;;;;;;4990920;28;20493;-80
2022/04/15 11:53:59;;;;;;;7.85;5.13;;;;;;;;;;4991327;28;20039;-79
2022/04/15 11:56:29;;;;;;;11.68;5.70;;;;;;;;;;4987994;28;20081;-79
2022/04/15 11:58:58;;;;;;;11.80;6.53;;;;;;;;;;4990927;28;20042;-78
2022/04/15 12:01:26;;;;;;;11.77;5.72;;;;;;;;;;4973123;28;20050;-77
2022/04/15 12:03:52;;;;;;;13.55;5.32;;;;;;;;;;4989329;28;20088;-74
2022/04/15 12:06:18;;;;;;;10.00;5.32;;;;;;;;;;4975911;28;20152;-76
2022/04/15 12:08:45;;;;;;;10.35;5.20;;;;;;;;;;4991727;28;20061;-76
2022/04/15 12:11:11;;;;;;;12.43;6.28;;;;;;;;;;4975989;28;20175;-76
2022/04/15 12:13:37;;;;;;;10.02;5.38;;;;;;;;;;5007544;28;20037;-75
2022/04/15 12:16:04;;;;;;;8.73;5.40;;;;;;;;;;4974586;28;20567;-75
2022/04/15 12:18:30;;;;;;;9.18;4.97;;;;;;;;;;5009241;28;20053;-75
2022/04/15 12:20:57;;;;;;;12.85;5.55;;;;;;;;;;4973471;28;20050;-77
2022/04/15 12:23:25;;;;;;;11.13;6.05;;;;;;;;;;4987024;28;20050;-75
2022/04/15 12:26:07;;;;;;;9.45;5.43;;;;;;;;;;4973766;28;20555;-76
2022/04/15 12:31:30;;;;;;;10.50;5.97;;;;;;;;;;5009131;28;20097;-75
2022/04/15 12:33:56;;;;;;;;;;;;;;;;;;5005640;28;20393;-76
2022/04/15 12:36:22;;;;;;;;;;;;;;;;;;4997743;28;19917;-74
2022/04/15 12:38:48;;;;;;;;;;;;;;;;;;5009607;28;19918;-74
2022/04/15 12:41:14;;;;;;;;;;;;;;;;;;5004099;28;19921;-76
2022/04/15 12:43:40;;;;;;;;;;;;;;;;;;4992810;28;19918;-81
2022/04/15 12:46:06;;;;;;;;;;;;;;;;;;5013597;28;20010;-76
2022/04/15 12:48:32;;;;;;;;;;;;;;;;;;5011748;28;19928;-81
2022/04/15 12:50:59;;;;;;;;;;;;;;;;;;4999351;28;19917;-78
2022/04/15 12:53:25;;;;;;;;;;;;;;;;;;4993838;28;19937;-79
2022/04/15 12:55:50;;;;;;;;;;;;;;;;;;5009227;28;19921;-82
2022/04/15 12:58:16;;;;;;;;;;;;;;;;;;5013048;28;19998;-85
2022/04/15 13:00:42;;;;;;;;;;;;;;;;;;5016592;28;19918;-83
2022/04/15 13:03:08;;;;;;;;;;;;;;;;;;5008535;28;20281;-79
2022/04/15 13:05:34;;;;;;;;;;;;;;;;;;4993088;28;19922;-81
2022/04/15 13:08:00;;;;;;;;;;;;;;;;;;4972743;28;19917;-82
2022/04/15 13:10:26;;;;;;;;;;;;;;;;;;5013715;28;19963;-81
2022/04/15 13:12:52;;;;;;;;;;;;;;;;;;4974104;28;19977;-79
2022/04/15 13:15:18;;;;;;;;;;;;;;;;;;4991748;28;20060;-77
2022/04/15 13:17:44;;;;;;;;;;;;;;;;;;5008261;28;19922;-77
2022/04/15 13:20:11;;;;;;;;;;;;;;;;;;4988951;28;19975;-76
2022/04/15 13:22:37;;;;;;;;;;;;;;;;;;5005405;28;19921;-80
2022/04/15 13:25:03;;;;;;;;;;;;;;;;;;5004111;28;20408;-77
2022/04/15 13:27:31;;;;;;;;;;;;;;;;;;5003967;28;20423;-77
2022/04/15 13:29:58;;;;;;;;;;;;;;;;;;5002746;28;19964;-80
2022/04/15 13:32:24;;;;;;;;;;;;;;;;;;5005010;28;19965;-80
2022/04/15 13:34:50;;;;;;;;;;;;;;;;;;4990484;28;20289;-74
2022/04/15 13:37:16;;;;;;;;;;;;;;;;;;5015967;28;19965;-81
2022/04/15 13:39:42;;;;;;;;;;;;;;;;;;4988583;28;19944;-79
2022/04/15 13:42:10;;;;;;;;;;;;;;;;;;4988406;28;19954;-76
2022/04/15 13:44:36;;;;;;;;;;;;;;;;;;4991331;28;19958;-76
2022/04/15 13:47:03;;;;;;;;;;;;;;;;;;4982344;28;19946;-75
2022/04/15 13:49:29;;;;;;;;;;;;;;;;;;4992693;28;20138;-75
2022/04/15 13:51:55;;;;;;;;;;;;;;;;;;5009344;28;20435;-75
2022/04/15 13:57:05;;;;;;;;;;;;;;;;;;4997650;28;20099;-76
2022/04/15 13:59:31;;;;;;;;;;;;;;;;;;4989299;28;20056;-80
2022/04/15 14:01:57;;;;;;;;;;;;;;;;;;4995126;28;19950;-78
2022/04/15 14:04:23;;;;;;;;;;;;;;;;;;4976797;28;20029;-78
2022/04/15 14:06:49;;;;;;;;;;;;;;;;;;4990695;28;19950;-78
2022/04/15 14:09:16;;;;;;;;;;;;;;;;;;5017056;28;19952;-77
2022/04/15 14:11:43;;;;;;;;;;;;;;;;;;5009593;28;19963;-79
2022/04/15 14:14:09;;;;;;;;;;;;;;;;;;5002098;28;20028;-81
2022/04/15 14:16:35;;;;;;;;;;;;;;;;;;4987937;28;19944;-80
2022/04/15 14:19:01;;;;;;;;;;;;;;;;;;5001345;28;19964;-81
2022/04/15 14:21:28;;;;;;;;;;;;;;;;;;5008733;28;20044;-80
2022/04/15 14:23:54;;;;;;;;;;;;;;;;;;4987669;28;20289;-80
2022/04/15 14:26:20;;;;;;;;;;;;;;;;;;4981391;28;19966;-79
2022/04/15 14:28:46;;;;;;;;;;;;;;;;;;5009878;28;20428;-80
2022/04/15 14:31:12;;;;;;;;;;;;;;;;;;4988961;28;19954;-77
2022/04/15 14:33:39;;;;;;;;;;;;;;;;;;4987402;28;19960;-79
2022/04/15 14:36:05;;;;;;;;;;;;;;;;;;4989723;28;19992;-77
2022/04/15 14:38:32;;;;;;;;;;;;;;;;;;4992336;28;20000;-78
2022/04/15 14:40:58;;;;;;;;;;;;;;;;;;4987265;28;19948;-80
2022/04/15 14:43:24;;;;;;;;;;;;;;;;;;4972891;28;19958;-77
2022/04/15 14:45:50;;;;;;;;;;;;;;;;;;4981588;28;20528;-78
2022/04/15 14:48:16;;;;;;;;;;;;;;;;;;4983839;28;20286;-78
2022/04/15 14:50:42;;;;;;;;;;;;;;;;;;4992988;28;19964;-77
2022/04/15 14:53:08;;;;;;;;;;;;;;;;;;4985047;28;19957;-79
2022/04/15 14:55:34;;;;;;;;;;;;;;;;;;4988805;28;20481;-78
2022/04/15 14:58:00;;;;;;;;;;;;;;;;;;4991419;28;20028;-81
2022/04/15 15:00:26;;;;;;;;;;;;;;;;;;4985424;28;19971;-84
2022/04/15 15:02:53;;;;;;;;;;;;;;;;;;4988647;28;20412;-78
2022/04/15 15:05:19;;;;;;;;;;;;;;;;;;4987829;28;19979;-78
2022/04/15 15:07:45;;;;;;;;;;;;;;;;;;5014983;28;19964;-78